Ana Sayfa
METAR-TAF:

METAR-TAF

Havaalanları :

Florești, Moldova

Enlem: 47-51-45N, Boylam: 028-12-45E, yükseklik: 101 m

METAR: eksik

Saat: 22:00 (19:00 UTC)

Tahmin

Rapor saat 14:20 UTC de 28 saat ve 40 dakika önce yapıldı.
Ayın 17'si saat 15 UTC'den ayın 17'si saat 24 UTC'ye kadar geçerli Tahmin
Rüzgar değişken yönden 5 kt
Görüş mesafesi 10 km veya daha fazla
1500 m altında bulut yok ve kümülonimbus yok

TAF: LUBM 171420Z 1715/1724 VRB05KT CAVOK

4.000'den fazla havaalanı için hava durumu gözlemleri ve tahminleri (METAR ve TAF raporları).

Kullanılabilir istasyonlar harita üzerinde sarı ve kırmızı noktalarla gösterilir.

İstasyonun adını görmek için fareyi noktanın üzerinde gezdirin.

Sonrasında hava gözlem ve tahminlerini görmek için tıklayın.

Haritayı değiştirmek için: yaklaştırmak için siyah artı işaretli yeşil düğmeye ve uzaklaştırmak için de eksi işaretli düğmeye hızla tıklayın; bitişik haritalar için yeşil okları kullanın.


METAR-TAF: